createdAt,value
2019-04-27T00:02:18.092Z,8.40
2019-04-27T00:05:04.397Z,8.40
2019-04-27T00:08:02.845Z,8.40
2019-04-27T00:10:50.967Z,8.40
2019-04-27T00:13:20.385Z,8.40
2019-04-27T00:16:14.925Z,8.40
2019-04-27T00:18:54.863Z,8.30
2019-04-27T00:21:34.803Z,8.30
2019-04-27T00:24:03.662Z,8.40
2019-04-27T00:26:33.483Z,8.30
2019-04-27T00:29:03.839Z,8.20
2019-04-27T00:31:33.690Z,8.30
2019-04-27T00:34:08.864Z,8.20
2019-04-27T00:36:45.131Z,8.10
2019-04-27T00:39:36.393Z,8.10
2019-04-27T00:42:05.591Z,8.10
2019-04-27T00:44:35.119Z,8.10
2019-04-27T00:47:08.797Z,8.10
2019-04-27T00:49:44.418Z,8.10
2019-04-27T00:52:17.869Z,8.00
2019-04-27T00:54:50.718Z,8.00
2019-04-27T00:57:40.387Z,7.90
2019-04-27T01:00:27.596Z,7.90
2019-04-27T01:03:01.161Z,7.90
2019-04-27T01:05:30.567Z,7.90
2019-04-27T01:08:00.033Z,7.80
2019-04-27T01:10:29.188Z,7.80
2019-04-27T01:12:58.266Z,7.70
2019-04-27T01:15:27.616Z,7.80
2019-04-27T01:18:09.549Z,7.80
2019-04-27T01:20:28.427Z,7.80
2019-04-27T01:22:59.441Z,7.80
2019-04-27T01:25:41.439Z,7.80
2019-04-27T01:28:18.339Z,7.80
2019-04-27T01:30:58.833Z,7.70
2019-04-27T01:33:28.325Z,7.80
2019-04-27T01:35:58.982Z,7.80
2019-04-27T01:38:29.076Z,7.80
2019-04-27T01:41:00.418Z,7.80
2019-04-27T01:43:30.190Z,7.80
2019-04-27T01:46:01.035Z,7.70
2019-04-27T01:48:30.595Z,7.80
2019-04-27T01:50:59.790Z,7.80
2019-04-27T01:53:30.303Z,7.80
2019-04-27T01:55:59.449Z,7.80
2019-04-27T01:58:29.283Z,7.80
2019-04-27T02:01:29.782Z,7.70
2019-04-27T02:04:32.923Z,7.70
2019-04-27T02:07:04.473Z,7.70
2019-04-27T02:09:33.338Z,7.70
2019-04-27T02:12:02.478Z,7.60
2019-04-27T02:14:31.299Z,7.70
2019-04-27T02:17:00.215Z,7.60
2019-04-27T02:19:29.408Z,7.60
2019-04-27T02:21:59.788Z,7.60
2019-04-27T02:24:29.001Z,7.60
2019-04-27T02:26:58.704Z,7.60
2019-04-27T02:29:38.954Z,7.60
2019-04-27T02:32:29.232Z,7.60
2019-04-27T02:35:00.492Z,7.60
2019-04-27T02:37:30.470Z,7.60
2019-04-27T02:40:00.193Z,7.50
2019-04-27T02:42:34.768Z,7.50
2019-04-27T02:45:03.789Z,7.50
2019-04-27T02:47:32.563Z,7.50
2019-04-27T02:50:01.410Z,7.40
2019-04-27T02:52:41.466Z,7.40
2019-04-27T02:55:10.430Z,7.40
2019-04-27T02:57:39.949Z,7.40
2019-04-27T03:00:10.476Z,7.40
2019-04-27T03:02:47.014Z,7.40
2019-04-27T03:05:26.523Z,7.40
2019-04-27T03:07:55.555Z,7.30
2019-04-27T03:10:26.661Z,7.30
2019-04-27T03:13:03.440Z,7.40
2019-04-27T03:15:49.739Z,7.30
2019-04-27T03:18:44.272Z,7.40
2019-04-27T03:21:20.257Z,7.40
2019-04-27T03:23:50.114Z,7.40
2019-04-27T03:26:44.602Z,7.30
2019-04-27T03:29:14.111Z,7.30
2019-04-27T03:31:47.260Z,7.30
2019-04-27T03:34:16.447Z,7.30
2019-04-27T03:36:44.537Z,7.30
2019-04-27T03:39:13.386Z,7.20
2019-04-27T03:41:42.374Z,7.20
2019-04-27T03:44:11.329Z,7.20
2019-04-27T03:46:40.173Z,7.20
2019-04-27T03:49:09.849Z,7.20
2019-04-27T03:51:54.513Z,7.20
2019-04-27T03:54:34.463Z,7.20
2019-04-27T03:57:16.172Z,7.20
2019-04-27T04:00:02.866Z,7.20
2019-04-27T04:02:31.812Z,7.20
2019-04-27T04:05:01.031Z,7.30
2019-04-27T04:07:30.248Z,7.30
2019-04-27T04:10:00.221Z,7.20
2019-04-27T04:12:47.093Z,7.20
2019-04-27T04:15:24.903Z,7.20
2019-04-27T04:17:53.856Z,7.20
2019-04-27T04:20:22.646Z,7.20
2019-04-27T04:22:51.633Z,7.20
2019-04-27T04:25:20.494Z,7.30
2019-04-27T04:27:50.667Z,7.20
2019-04-27T04:30:20.114Z,7.20
2019-04-27T04:32:51.985Z,7.20
2019-04-27T04:35:22.455Z,7.20
2019-04-27T04:37:52.688Z,7.20
2019-04-27T04:40:26.381Z,7.20
2019-04-27T04:43:10.878Z,7.20
2019-04-27T04:46:14.341Z,7.20
2019-04-27T04:48:43.216Z,7.20
2019-04-27T04:51:12.434Z,7.20
2019-04-27T04:53:41.553Z,7.20
2019-04-27T04:56:10.658Z,7.20
2019-04-27T04:58:41.405Z,7.30
2019-04-27T05:01:10.222Z,7.30
2019-04-27T05:03:39.012Z,7.30
2019-04-27T05:06:08.806Z,7.40
2019-04-27T05:08:39.359Z,7.40
2019-04-27T05:11:09.724Z,7.40
2019-04-27T05:13:39.370Z,7.50
2019-04-27T05:16:08.937Z,7.60
2019-04-27T05:18:39.396Z,7.60
2019-04-27T05:21:14.702Z,7.70
2019-04-27T05:23:43.522Z,7.70
2019-04-27T05:26:12.407Z,7.70
2019-04-27T05:28:41.431Z,7.70
2019-04-27T05:31:11.300Z,7.60
2019-04-27T05:33:40.082Z,7.60
2019-04-27T05:36:09.351Z,7.60
2019-04-27T05:38:39.855Z,7.50
2019-04-27T05:41:08.771Z,7.60
2019-04-27T05:43:46.915Z,7.60
2019-04-27T05:46:39.893Z,7.60
2019-04-27T05:49:12.478Z,7.60
2019-04-27T05:51:42.057Z,7.60
2019-04-27T05:54:11.055Z,7.60
2019-04-27T05:56:39.866Z,7.50
2019-04-27T05:59:09.145Z,7.60
2019-04-27T06:01:38.928Z,7.70
2019-04-27T06:04:09.052Z,7.70
2019-04-27T06:06:39.681Z,7.70
2019-04-27T06:09:09.523Z,7.70
2019-04-27T06:11:39.978Z,7.60
2019-04-27T06:14:09.693Z,7.60
2019-04-27T06:16:39.397Z,7.70
2019-04-27T06:19:09.587Z,7.70
2019-04-27T06:21:40.169Z,7.70
2019-04-27T06:24:09.189Z,7.70
2019-04-27T06:26:39.985Z,7.80
2019-04-27T06:29:09.520Z,7.80
2019-04-27T06:31:39.682Z,7.90
2019-04-27T06:34:09.839Z,7.90
2019-04-27T06:36:38.951Z,7.90
2019-04-27T06:39:09.777Z,7.90
2019-04-27T06:41:39.964Z,8.00
2019-04-27T06:44:11.288Z,8.10
2019-04-27T06:46:40.533Z,8.20
2019-04-27T06:49:11.108Z,8.30
2019-04-27T06:51:40.471Z,8.40
2019-04-27T06:54:09.436Z,8.40
2019-04-27T06:56:38.931Z,8.40
2019-04-27T06:59:08.742Z,8.40
2019-04-27T07:01:39.040Z,8.40
2019-04-27T07:04:08.813Z,8.40
2019-04-27T07:06:52.925Z,8.40
2019-04-27T07:09:09.662Z,8.40
2019-04-27T07:11:39.943Z,8.50
2019-04-27T07:14:11.183Z,8.50
2019-04-27T07:16:39.655Z,8.60
2019-04-27T07:19:09.469Z,8.70
2019-04-27T07:21:39.924Z,8.80
2019-04-27T07:24:09.124Z,8.90
2019-04-27T07:26:39.048Z,9.10
2019-04-27T07:29:09.617Z,9.30
2019-04-27T07:31:40.087Z,9.50
2019-04-27T07:34:09.544Z,9.60
2019-04-27T07:36:39.290Z,9.70
2019-04-27T07:39:11.138Z,9.90
2019-04-27T07:41:39.918Z,10.20
2019-04-27T07:44:21.298Z,10.40
2019-04-27T07:47:09.714Z,10.60
2019-04-27T07:49:39.075Z,10.60
2019-04-27T07:52:08.735Z,10.60
2019-04-27T07:54:38.501Z,10.50
2019-04-27T07:57:09.834Z,10.40
2019-04-27T07:59:41.607Z,10.30
2019-04-27T08:02:12.482Z,10.30
2019-04-27T08:04:41.264Z,10.30
2019-04-27T08:07:10.154Z,10.30
2019-04-27T08:09:39.733Z,10.40
2019-04-27T08:12:10.731Z,10.30
2019-04-27T08:14:39.366Z,10.40
2019-04-27T08:17:09.726Z,10.60
2019-04-27T08:19:39.656Z,10.60
2019-04-27T08:22:09.595Z,10.80
2019-04-27T08:24:39.561Z,10.70
2019-04-27T08:27:33.802Z,10.80
2019-04-27T08:30:29.309Z,10.90
2019-04-27T08:32:59.341Z,11.20
2019-04-27T08:35:31.096Z,12.00
2019-04-27T08:37:59.512Z,12.70
2019-04-27T08:40:29.294Z,13.50
2019-04-27T08:42:59.249Z,14.10
2019-04-27T08:45:29.306Z,14.60
2019-04-27T08:47:59.504Z,14.70
2019-04-27T08:50:28.911Z,14.60
2019-04-27T08:52:57.711Z,15.20
2019-04-27T08:55:26.530Z,15.00
2019-04-27T08:57:55.390Z,15.00
2019-04-27T09:00:24.348Z,15.10
2019-04-27T09:02:53.243Z,15.40
2019-04-27T09:05:25.541Z,15.80
2019-04-27T09:08:24.162Z,16.30
2019-04-27T09:11:12.551Z,16.20
2019-04-27T09:14:15.880Z,16.90
2019-04-27T09:17:03.054Z,16.90
2019-04-27T09:19:39.343Z,16.80
2019-04-27T09:22:15.951Z,16.40
2019-04-27T09:24:39.712Z,15.80
2019-04-27T09:27:09.738Z,15.60
2019-04-27T09:29:39.536Z,15.90
2019-04-27T09:32:08.981Z,16.30
2019-04-27T09:34:37.899Z,16.90
2019-04-27T09:37:06.913Z,17.40
2019-04-27T09:39:35.920Z,17.70
2019-04-27T09:42:06.495Z,18.30
2019-04-27T09:44:37.156Z,19.00
2019-04-27T09:47:06.400Z,19.30
2019-04-27T09:49:36.702Z,18.60
2019-04-27T09:52:06.357Z,18.30
2019-04-27T09:54:36.532Z,18.70
2019-04-27T09:57:06.931Z,19.10
2019-04-27T09:59:39.333Z,20.10
2019-04-27T10:02:08.612Z,21.30
2019-04-27T10:04:37.638Z,22.20
2019-04-27T10:07:06.524Z,22.80
2019-04-27T10:09:36.865Z,22.50
2019-04-27T10:12:07.503Z,21.80
2019-04-27T10:14:36.529Z,21.80
2019-04-27T10:17:05.458Z,21.90
2019-04-27T10:19:34.399Z,22.20
2019-04-27T10:22:05.663Z,22.30
2019-04-27T10:24:35.840Z,22.30
2019-04-27T10:27:05.842Z,22.70
2019-04-27T10:29:36.097Z,23.20
2019-04-27T10:32:06.220Z,22.20
2019-04-27T10:34:35.254Z,20.00
2019-04-27T10:37:05.919Z,20.00
2019-04-27T10:39:36.107Z,19.60
2019-04-27T10:42:06.702Z,18.70
2019-04-27T10:44:35.845Z,18.10
2019-04-27T10:47:05.893Z,18.00
2019-04-27T10:49:35.028Z,18.90
2019-04-27T10:52:05.744Z,19.70
2019-04-27T10:54:34.541Z,20.20
2019-04-27T10:57:03.561Z,19.80
2019-04-27T10:59:32.439Z,19.40
2019-04-27T11:02:01.343Z,18.30
2019-04-27T11:04:43.496Z,18.50
2019-04-27T11:07:15.847Z,18.50
2019-04-27T11:09:44.996Z,19.60
2019-04-27T11:12:15.707Z,20.50
2019-04-27T11:14:44.522Z,20.60
2019-04-27T11:17:13.395Z,20.00
2019-04-27T11:19:42.199Z,18.40
2019-04-27T11:22:11.051Z,17.50
2019-04-27T11:24:39.903Z,16.80
2019-04-27T11:27:08.911Z,17.10
2019-04-27T11:29:37.854Z,17.50
2019-04-27T11:32:06.835Z,18.00
2019-04-27T11:34:53.557Z,17.70
2019-04-27T11:37:28.592Z,17.20
2019-04-27T11:39:57.453Z,16.50
2019-04-27T11:42:27.367Z,16.80
2019-04-27T11:44:58.202Z,17.70
2019-04-27T11:47:27.458Z,18.00
2019-04-27T11:49:57.925Z,17.30
2019-04-27T11:52:26.948Z,16.00
2019-04-27T11:54:56.663Z,15.40
2019-04-27T11:57:25.495Z,14.70
2019-04-27T11:59:54.360Z,14.40
2019-04-27T12:02:23.383Z,14.40
2019-04-27T12:04:52.294Z,14.40
2019-04-27T12:07:21.174Z,14.40
2019-04-27T12:09:50.063Z,14.30
2019-04-27T12:12:21.794Z,14.20
2019-04-27T12:14:49.436Z,14.20
2019-04-27T12:17:18.348Z,14.00
2019-04-27T12:19:47.162Z,13.80
2019-04-27T12:22:16.451Z,13.70
2019-04-27T12:24:45.821Z,13.80
2019-04-27T12:27:32.515Z,14.80
2019-04-27T12:30:11.626Z,15.30
2019-04-27T12:32:40.593Z,15.90
2019-04-27T12:35:09.492Z,16.20
2019-04-27T12:37:38.320Z,16.80
2019-04-27T12:40:07.488Z,17.70
2019-04-27T12:42:36.505Z,18.50
2019-04-27T12:45:06.086Z,18.50
2019-04-27T12:47:36.509Z,18.70
2019-04-27T12:50:06.234Z,18.70
2019-04-27T12:52:36.077Z,19.00
2019-04-27T12:55:43.088Z,18.80
2019-04-27T12:58:29.550Z,18.40
2019-04-27T13:00:59.194Z,18.10
2019-04-27T13:03:27.978Z,18.30
2019-04-27T13:05:56.853Z,18.10
2019-04-27T13:08:26.115Z,17.20
2019-04-27T13:10:55.408Z,17.10
2019-04-27T13:13:26.698Z,17.90
2019-04-27T13:15:56.325Z,18.80
2019-04-27T13:18:25.934Z,19.50
2019-04-27T13:20:54.895Z,18.90
2019-04-27T13:23:23.829Z,18.40
2019-04-27T13:25:52.662Z,17.80
2019-04-27T13:28:21.475Z,18.30
2019-04-27T13:30:50.244Z,18.20
2019-04-27T13:33:19.051Z,18.40
2019-04-27T13:35:47.880Z,18.10
2019-04-27T13:38:18.128Z,17.70
2019-04-27T13:41:05.975Z,18.00
2019-04-27T13:43:36.199Z,18.10
2019-04-27T13:46:23.602Z,18.40
2019-04-27T13:49:23.867Z,18.10
2019-04-27T13:52:07.159Z,17.90
2019-04-27T13:54:36.030Z,18.00
2019-04-27T13:57:05.199Z,18.00
2019-04-27T13:59:34.078Z,17.30
2019-04-27T14:02:03.120Z,16.80
2019-04-27T14:04:31.920Z,17.10
2019-04-27T14:07:00.803Z,17.60
2019-04-27T14:09:30.677Z,17.30
2019-04-27T14:12:09.502Z,17.20
2019-04-27T14:14:39.047Z,16.50
2019-04-27T14:17:09.722Z,16.30
2019-04-27T14:19:39.496Z,16.30
2019-04-27T14:22:09.210Z,15.90
2019-04-27T14:24:40.346Z,15.70
2019-04-27T14:27:09.807Z,15.70
2019-04-27T14:29:39.198Z,15.70
2019-04-27T14:32:08.693Z,15.80
2019-04-27T14:34:37.550Z,15.50
2019-04-27T14:37:08.531Z,15.40
2019-04-27T14:39:38.880Z,15.20
2019-04-27T14:42:08.348Z,15.10
2019-04-27T14:44:38.984Z,15.20
2019-04-27T14:47:08.248Z,15.40
2019-04-27T14:49:38.928Z,16.00
2019-04-27T14:52:09.413Z,17.00
2019-04-27T14:54:47.273Z,18.00
2019-04-27T14:57:09.128Z,17.70
2019-04-27T14:59:38.471Z,17.30
2019-04-27T15:02:08.717Z,17.10
2019-04-27T15:04:40.209Z,17.20
2019-04-27T15:07:09.375Z,17.30
2019-04-27T15:09:38.398Z,17.20
2019-04-27T15:12:07.430Z,17.20
2019-04-27T15:14:36.415Z,17.20
2019-04-27T15:17:06.811Z,17.10
2019-04-27T15:19:40.658Z,16.50
2019-04-27T15:22:19.741Z,16.20
2019-04-27T15:24:49.000Z,15.90
2019-04-27T15:27:17.169Z,15.70
2019-04-27T15:29:46.068Z,15.60
2019-04-27T15:32:22.515Z,15.70
2019-04-27T15:35:04.984Z,15.60
2019-04-27T15:37:52.149Z,15.60
2019-04-27T15:40:29.043Z,16.20
2019-04-27T15:43:22.989Z,16.60
2019-04-27T15:45:53.505Z,16.50
2019-04-27T15:48:25.030Z,16.20
2019-04-27T15:50:52.234Z,15.90
2019-04-27T15:53:21.030Z,15.40
2019-04-27T15:55:53.650Z,15.10
2019-04-27T15:58:25.036Z,14.90
2019-04-27T16:00:56.235Z,14.80
2019-04-27T16:03:22.845Z,14.80
2019-04-27T16:05:52.406Z,14.60
2019-04-27T16:08:21.266Z,14.50
2019-04-27T16:10:50.200Z,14.70
2019-04-27T16:13:19.031Z,15.20
2019-04-27T16:15:53.870Z,16.60
2019-04-27T16:18:18.939Z,17.20
2019-04-27T16:20:48.531Z,17.70
2019-04-27T16:23:18.170Z,18.50
2019-04-27T16:25:50.791Z,19.10
2019-04-27T16:28:18.425Z,19.40
2019-04-27T16:30:52.423Z,19.10
2019-04-27T16:33:22.079Z,18.30
2019-04-27T16:35:48.914Z,17.60
2019-04-27T16:38:35.066Z,18.00
2019-04-27T16:41:04.270Z,17.70
2019-04-27T16:43:33.286Z,16.70
2019-04-27T16:46:04.409Z,16.30
2019-04-27T16:48:34.731Z,15.80
2019-04-27T16:51:03.593Z,15.60
2019-04-27T16:53:38.209Z,15.30
2019-04-27T16:56:10.829Z,15.10
2019-04-27T16:58:39.910Z,14.90
2019-04-27T17:01:18.409Z,14.70
2019-04-27T17:03:48.517Z,14.60
2019-04-27T17:06:21.048Z,14.60
2019-04-27T17:08:49.647Z,14.60
2019-04-27T17:11:19.569Z,14.50
2019-04-27T17:13:53.169Z,14.50
2019-04-27T17:16:39.734Z,14.50
2019-04-27T17:19:14.202Z,14.40
2019-04-27T17:21:43.165Z,14.40
2019-04-27T17:24:11.992Z,14.40
2019-04-27T17:26:43.574Z,14.40
2019-04-27T17:29:16.730Z,14.30
2019-04-27T17:31:50.670Z,14.20
2019-04-27T17:34:25.023Z,14.20
2019-04-27T17:36:54.478Z,14.20
2019-04-27T17:39:23.437Z,14.20
2019-04-27T17:41:52.741Z,13.60
2019-04-27T17:44:23.172Z,12.50
2019-04-27T17:46:51.950Z,11.70
2019-04-27T17:49:20.795Z,11.10
2019-04-27T17:51:49.880Z,10.70
2019-04-27T17:54:18.776Z,10.30
2019-04-27T17:56:49.717Z,9.80
2019-04-27T17:59:20.723Z,9.30
2019-04-27T18:01:49.628Z,8.80
2019-04-27T18:04:18.732Z,8.50
2019-04-27T18:06:48.349Z,8.20
2019-04-27T18:09:18.929Z,8.00
2019-04-27T18:11:50.018Z,7.90
2019-04-27T18:14:19.275Z,7.80
2019-04-27T18:16:48.622Z,7.80
2019-04-27T18:19:31.666Z,7.70
2019-04-27T18:22:02.130Z,7.70
2019-04-27T18:24:48.747Z,7.70
2019-04-27T18:27:39.807Z,7.70
2019-04-27T18:30:19.658Z,7.60
2019-04-27T18:32:48.989Z,7.70
2019-04-27T18:35:20.022Z,7.60
2019-04-27T18:37:48.701Z,7.60
2019-04-27T18:40:18.301Z,7.60
2019-04-27T18:42:47.182Z,7.60
2019-04-27T18:45:18.252Z,7.60
2019-04-27T18:47:50.325Z,7.50
2019-04-27T18:50:29.170Z,7.40
2019-04-27T18:53:02.318Z,7.50
2019-04-27T18:55:31.174Z,7.40
2019-04-27T18:58:02.066Z,7.50
2019-04-27T19:00:30.734Z,7.40
2019-04-27T19:02:59.623Z,7.40
2019-04-27T19:05:39.654Z,7.30
2019-04-27T19:07:59.079Z,7.30
2019-04-27T19:10:28.260Z,7.30
2019-04-27T19:12:58.515Z,7.30
2019-04-27T19:15:28.555Z,7.30
2019-04-27T19:17:58.153Z,7.40
2019-04-27T19:20:28.751Z,7.50
2019-04-27T19:22:59.756Z,7.40
2019-04-27T19:25:35.930Z,7.30
2019-04-27T19:28:22.916Z,7.30
2019-04-27T19:30:57.651Z,7.30
2019-04-27T19:33:29.151Z,7.30
2019-04-27T19:35:58.523Z,7.20
2019-04-27T19:38:28.939Z,7.20
2019-04-27T19:40:57.831Z,7.20
2019-04-27T19:43:28.440Z,7.10
2019-04-27T19:45:58.432Z,7.10
2019-04-27T19:48:28.613Z,7.10
2019-04-27T19:50:57.660Z,7.00
2019-04-27T19:53:26.622Z,6.90
2019-04-27T19:56:04.379Z,6.80
2019-04-27T19:58:38.172Z,6.80
2019-04-27T20:01:28.126Z,6.80
2019-04-27T20:04:08.655Z,6.80
2019-04-27T20:06:38.507Z,6.90
2019-04-27T20:09:27.070Z,6.90
2019-04-27T20:11:55.958Z,7.00
2019-04-27T20:14:24.842Z,7.00
2019-04-27T20:16:53.721Z,7.00
2019-04-27T20:19:22.664Z,7.00
2019-04-27T20:21:51.968Z,7.10
2019-04-27T20:24:22.723Z,7.10
2019-04-27T20:26:51.702Z,7.10
2019-04-27T20:29:21.764Z,7.10
2019-04-27T20:31:51.782Z,7.10
2019-04-27T20:34:20.887Z,7.10
2019-04-27T20:36:52.745Z,7.00
2019-04-27T20:39:21.694Z,7.00
2019-04-27T20:41:51.113Z,7.00
2019-04-27T20:44:21.067Z,6.90
2019-04-27T20:46:51.343Z,6.90
2019-04-27T20:49:21.290Z,6.90
2019-04-27T20:52:21.595Z,6.90
2019-04-27T20:54:51.443Z,6.90
2019-04-27T20:57:21.652Z,6.90
2019-04-27T20:59:52.247Z,6.80
2019-04-27T21:02:51.812Z,6.80
2019-04-27T21:05:42.963Z,6.80
2019-04-27T21:08:11.866Z,6.80
2019-04-27T21:10:41.384Z,6.70
2019-04-27T21:13:11.191Z,6.60
2019-04-27T21:15:41.884Z,6.60
2019-04-27T21:18:11.478Z,6.50
2019-04-27T21:20:41.299Z,6.50
2019-04-27T21:23:12.121Z,6.50
2019-04-27T21:25:42.129Z,6.40
2019-04-27T21:28:16.489Z,6.30
2019-04-27T21:30:42.043Z,6.30
2019-04-27T21:33:11.445Z,6.30
2019-04-27T21:35:40.398Z,6.20
2019-04-27T21:38:09.310Z,6.30
2019-04-27T21:40:38.123Z,6.30
2019-04-27T21:43:07.101Z,6.30
2019-04-27T21:45:36.063Z,6.40
2019-04-27T21:48:04.999Z,6.30
2019-04-27T21:50:33.882Z,6.20
2019-04-27T21:53:15.154Z,6.30
2019-04-27T21:55:43.978Z,6.30
2019-04-27T21:58:12.793Z,6.30
2019-04-27T22:01:13.224Z,6.30
2019-04-27T22:03:42.602Z,6.40
2019-04-27T22:06:11.681Z,6.40
2019-04-27T22:08:41.058Z,6.40
2019-04-27T22:11:11.621Z,6.20
2019-04-27T22:13:41.000Z,6.20
2019-04-27T22:16:12.737Z,6.20
2019-04-27T22:18:41.737Z,6.30
2019-04-27T22:21:11.552Z,6.30
2019-04-27T22:23:47.367Z,6.30
2019-04-27T22:26:16.314Z,6.40
2019-04-27T22:28:49.323Z,6.40
2019-04-27T22:31:16.145Z,6.40
2019-04-27T22:33:45.272Z,6.40
2019-04-27T22:36:14.141Z,6.40
2019-04-27T22:38:42.970Z,6.50
2019-04-27T22:41:33.719Z,6.60
2019-04-27T22:44:26.118Z,6.60
2019-04-27T22:46:55.494Z,6.70
2019-04-27T22:49:24.298Z,6.70
2019-04-27T22:51:53.243Z,6.70
2019-04-27T22:54:22.986Z,6.70
2019-04-27T22:56:53.532Z,6.70
2019-04-27T22:59:31.951Z,6.70
2019-04-27T23:02:18.628Z,6.70
2019-04-27T23:04:51.687Z,6.70
2019-04-27T23:07:21.274Z,6.70
2019-04-27T23:09:51.590Z,6.70
2019-04-27T23:12:21.539Z,6.70
2019-04-27T23:14:52.245Z,6.70
2019-04-27T23:17:32.781Z,6.80
2019-04-27T23:20:01.704Z,6.80
2019-04-27T23:22:31.531Z,6.80
2019-04-27T23:25:01.129Z,6.80
2019-04-27T23:27:31.749Z,6.70
2019-04-27T23:30:01.550Z,6.70
2019-04-27T23:32:40.860Z,6.70
2019-04-27T23:35:10.084Z,6.60
2019-04-27T23:37:39.243Z,6.60
2019-04-27T23:40:08.170Z,6.50
2019-04-27T23:42:37.031Z,6.50
2019-04-27T23:45:07.017Z,6.50
2019-04-27T23:47:35.891Z,6.50
2019-04-27T23:50:05.399Z,6.50
2019-04-27T23:52:52.586Z,6.40
2019-04-27T23:55:23.350Z,6.40
2019-04-27T23:57:52.133Z,6.30
